createdAt,value
2018-04-26T00:00:15.281Z,19.20
2018-04-26T00:02:43.910Z,19.20
2018-04-26T00:05:11.473Z,19.10
2018-04-26T00:07:39.018Z,19.10
2018-04-26T00:10:06.590Z,19.10
2018-04-26T00:12:34.122Z,19.10
2018-04-26T00:15:02.464Z,19.00
2018-04-26T00:17:30.004Z,19.00
2018-04-26T00:19:57.574Z,19.00
2018-04-26T00:22:25.143Z,19.00
2018-04-26T00:24:52.675Z,19.00
2018-04-26T00:27:20.246Z,19.00
2018-04-26T00:29:47.780Z,18.90
2018-04-26T00:32:15.315Z,18.90
2018-04-26T00:34:43.658Z,18.90
2018-04-26T00:37:11.211Z,18.90
2018-04-26T00:39:38.749Z,18.90
2018-04-26T00:42:06.332Z,18.90
2018-04-26T00:44:33.912Z,18.80
2018-04-26T00:47:01.441Z,18.80
2018-04-26T00:49:28.998Z,18.80
2018-04-26T00:52:01.457Z,18.80
2018-04-26T00:54:28.990Z,18.80
2018-04-26T00:56:57.295Z,18.80
2018-04-26T00:59:24.867Z,18.70
2018-04-26T01:01:52.403Z,18.70
2018-04-26T01:04:19.974Z,18.70
2018-04-26T01:06:47.506Z,18.70
2018-04-26T01:09:15.838Z,18.70
2018-04-26T01:11:43.366Z,18.60
2018-04-26T01:14:10.938Z,18.60
2018-04-26T01:16:38.502Z,18.60
2018-04-26T01:19:06.055Z,18.60
2018-04-26T01:21:33.628Z,18.50
2018-04-26T01:24:01.157Z,18.50
2018-04-26T01:26:28.727Z,18.50
2018-04-26T01:28:56.305Z,18.50
2018-04-26T01:31:23.862Z,18.50
2018-04-26T01:33:51.413Z,18.50
2018-04-26T01:36:31.046Z,18.50
2018-04-26T01:38:58.614Z,18.40
2018-04-26T01:41:26.146Z,18.40
2018-04-26T01:43:54.474Z,18.40
2018-04-26T01:46:22.019Z,18.40
2018-04-26T01:48:51.125Z,18.40
2018-04-26T01:51:18.664Z,18.30
2018-04-26T01:53:46.235Z,18.30
2018-04-26T01:56:13.810Z,18.30
2018-04-26T01:58:41.345Z,18.30
2018-04-26T02:01:08.923Z,18.30
2018-04-26T02:03:36.447Z,18.30
2018-04-26T02:06:04.741Z,18.20
2018-04-26T02:08:32.314Z,18.20
2018-04-26T02:10:59.889Z,18.20
2018-04-26T02:13:27.425Z,18.20
2018-04-26T02:15:54.959Z,18.20
2018-04-26T02:18:23.290Z,18.20
2018-04-26T02:20:50.840Z,18.10
2018-04-26T02:23:18.407Z,18.10
2018-04-26T02:25:45.945Z,18.10
2018-04-26T02:28:13.519Z,18.10
2018-04-26T02:30:41.060Z,18.10
2018-04-26T02:33:08.634Z,18.10
2018-04-26T02:35:36.167Z,18.10
2018-04-26T02:38:04.502Z,18.00
2018-04-26T02:40:32.037Z,18.00
2018-04-26T02:42:59.572Z,18.00
2018-04-26T02:45:27.152Z,18.00
2018-04-26T02:47:54.676Z,17.90
2018-04-26T02:50:23.014Z,17.90
2018-04-26T02:52:50.559Z,17.90
2018-04-26T02:55:18.129Z,17.90
2018-04-26T02:57:45.697Z,17.90
2018-04-26T03:00:13.250Z,17.90
2018-04-26T03:02:40.815Z,17.90
2018-04-26T03:05:08.356Z,17.90
2018-04-26T03:07:35.933Z,17.80
2018-04-26T03:10:04.268Z,17.70
2018-04-26T03:12:31.816Z,17.70
2018-04-26T03:15:00.171Z,17.70
2018-04-26T03:17:27.707Z,17.70
2018-04-26T03:19:55.239Z,17.70
2018-04-26T03:22:22.794Z,17.70
2018-04-26T03:24:50.371Z,17.70
2018-04-26T03:27:17.915Z,17.60
2018-04-26T03:29:46.260Z,17.60
2018-04-26T03:32:14.564Z,17.60
2018-04-26T03:34:42.130Z,17.60
2018-04-26T03:37:09.683Z,17.60
2018-04-26T03:39:39.172Z,17.60
2018-04-26T03:42:07.466Z,17.50
2018-04-26T03:44:34.995Z,17.50
2018-04-26T03:47:03.345Z,17.50
2018-04-26T03:49:30.918Z,17.50
2018-04-26T03:51:59.215Z,17.40
2018-04-26T03:54:27.551Z,17.40
2018-04-26T03:56:55.128Z,17.50
2018-04-26T03:59:22.663Z,17.40
2018-04-26T04:02:02.199Z,17.40
2018-04-26T04:04:41.718Z,17.40
2018-04-26T04:07:09.295Z,17.30
2018-04-26T04:09:36.862Z,17.30
2018-04-26T04:12:04.400Z,17.30
2018-04-26T04:14:31.970Z,17.30
2018-04-26T04:16:59.510Z,17.20
2018-04-26T04:19:27.857Z,17.20
2018-04-26T04:21:55.444Z,17.20
2018-04-26T04:24:23.746Z,17.20
2018-04-26T04:26:51.282Z,17.10
2018-04-26T04:29:19.615Z,17.10
2018-04-26T04:31:47.149Z,17.10
2018-04-26T04:34:14.715Z,17.10
2018-04-26T04:36:42.241Z,17.10
2018-04-26T04:39:10.577Z,17.10
2018-04-26T04:41:38.120Z,17.10
2018-04-26T04:44:05.694Z,17.10
2018-04-26T04:46:33.232Z,17.00
2018-04-26T04:49:00.799Z,17.00
2018-04-26T04:51:28.326Z,17.00
2018-04-26T04:53:55.904Z,17.00
2018-04-26T04:56:23.433Z,16.90
2018-04-26T04:58:51.773Z,16.90
2018-04-26T05:01:19.345Z,16.90
2018-04-26T05:03:47.646Z,16.90
2018-04-26T05:06:15.977Z,16.90
2018-04-26T05:08:43.507Z,16.90
2018-04-26T05:11:11.084Z,16.90
2018-04-26T05:13:38.628Z,16.90
2018-04-26T05:16:06.218Z,16.90
2018-04-26T05:18:33.750Z,16.80
2018-04-26T05:21:01.284Z,16.80
2018-04-26T05:23:29.617Z,16.80
2018-04-26T05:25:57.146Z,16.80
2018-04-26T05:28:24.714Z,16.80
2018-04-26T05:30:52.260Z,16.70
2018-04-26T05:33:19.832Z,16.70
2018-04-26T05:35:47.368Z,16.60
2018-04-26T05:38:15.703Z,16.60
2018-04-26T05:40:43.240Z,16.60
2018-04-26T05:43:10.916Z,16.60
2018-04-26T05:45:38.501Z,16.60
2018-04-26T05:48:09.375Z,16.50
2018-04-26T05:50:37.666Z,16.50
2018-04-26T05:53:05.199Z,16.50
2018-04-26T05:55:33.534Z,16.50
2018-04-26T05:58:01.069Z,16.50
2018-04-26T06:00:28.642Z,16.50
2018-04-26T06:02:56.198Z,16.40
2018-04-26T06:05:23.768Z,16.40
2018-04-26T06:07:51.296Z,16.40
2018-04-26T06:10:18.874Z,16.40
2018-04-26T06:12:46.430Z,16.40
2018-04-26T06:15:13.967Z,16.30
2018-04-26T06:17:42.307Z,16.30
2018-04-26T06:20:09.891Z,16.30
2018-04-26T06:22:38.257Z,16.20
2018-04-26T06:25:05.926Z,16.30
2018-04-26T06:27:33.411Z,16.20
2018-04-26T06:30:01.720Z,16.20
2018-04-26T06:32:33.333Z,16.20
2018-04-26T06:35:17.247Z,16.20
2018-04-26T06:40:50.605Z,16.20
2018-04-26T06:43:20.563Z,16.10
2018-04-26T06:45:52.461Z,16.10
2018-04-26T06:48:25.109Z,16.10
2018-04-26T06:50:57.385Z,16.10
2018-04-26T06:53:26.787Z,16.10
2018-04-26T06:55:54.465Z,16.10
2018-04-26T06:58:23.592Z,16.10
2018-04-26T07:18:17.410Z,15.90
2018-04-26T07:38:05.291Z,15.90
2018-04-26T07:40:33.873Z,15.90
2018-04-26T07:43:01.624Z,15.80
2018-04-26T07:45:30.233Z,15.90
2018-04-26T07:47:59.085Z,15.80
2018-04-26T07:50:26.943Z,15.90
2018-04-26T07:52:54.638Z,15.80
2018-04-26T07:55:22.437Z,15.80
2018-04-26T07:57:50.132Z,15.80
2018-04-26T08:00:17.950Z,15.80
2018-04-26T08:02:46.701Z,15.80
2018-04-26T08:05:15.345Z,15.80
2018-04-26T08:07:43.014Z,15.80
2018-04-26T08:10:10.773Z,15.80
2018-04-26T08:12:38.515Z,15.80
2018-04-26T08:15:06.323Z,15.80
2018-04-26T08:17:34.024Z,15.80
2018-04-26T08:20:02.662Z,15.70
2018-04-26T08:22:31.239Z,15.70
2018-04-26T08:24:59.232Z,15.70
2018-04-26T08:27:26.905Z,15.70
2018-04-26T08:29:54.645Z,15.70
2018-04-26T08:32:22.485Z,15.70
2018-04-26T08:37:25.753Z,15.70
2018-04-26T08:39:53.322Z,15.60
2018-04-26T08:42:20.902Z,15.70
2018-04-26T08:44:48.432Z,15.70
2018-04-26T08:47:15.967Z,15.70
2018-04-26T08:49:44.290Z,15.70
2018-04-26T08:52:11.870Z,15.70
2018-04-26T08:54:39.397Z,15.70
2018-04-26T08:57:06.940Z,15.70
2018-04-26T08:59:35.273Z,15.70
2018-04-26T09:02:02.815Z,15.70
2018-04-26T09:04:30.452Z,15.70
2018-04-26T09:06:58.757Z,15.70
2018-04-26T09:09:26.339Z,15.70
2018-04-26T09:11:53.881Z,15.70
2018-04-26T09:14:21.405Z,15.70
2018-04-26T09:16:48.974Z,15.70
2018-04-26T09:19:16.549Z,15.70
2018-04-26T09:21:44.090Z,15.70
2018-04-26T09:24:11.650Z,15.70
2018-04-26T09:26:39.222Z,15.60
2018-04-26T09:29:06.750Z,15.70
2018-04-26T09:31:35.085Z,15.60
2018-04-26T09:34:02.632Z,15.60
2018-04-26T09:36:30.205Z,15.60
2018-04-26T09:38:57.739Z,15.60
2018-04-26T09:41:25.276Z,15.60
2018-04-26T09:43:53.619Z,15.60
2018-04-26T09:46:21.155Z,15.60
2018-04-26T09:48:48.727Z,15.60
2018-04-26T09:51:16.267Z,15.60
2018-04-26T09:53:43.835Z,15.60
2018-04-26T09:56:11.380Z,14.90
2018-04-26T09:58:39.177Z,14.70
2018-04-26T10:01:09.694Z,14.90
2018-04-26T10:03:38.005Z,15.10
2018-04-26T10:06:20.427Z,15.20
2018-04-26T10:08:48.765Z,15.40
2018-04-26T10:11:16.307Z,15.30
2018-04-26T10:13:43.885Z,15.40
2018-04-26T10:16:11.455Z,15.40
2018-04-26T10:18:39.795Z,15.40
2018-04-26T10:21:07.415Z,15.40
2018-04-26T10:23:36.439Z,15.20
2018-04-26T10:26:04.007Z,14.60
2018-04-26T10:28:31.546Z,14.80
2018-04-26T10:30:59.893Z,15.10
2018-04-26T10:33:27.468Z,15.10
2018-04-26T10:35:55.803Z,15.30
2018-04-26T10:38:23.335Z,15.30
2018-04-26T10:40:50.916Z,15.30
2018-04-26T10:43:18.446Z,15.40
2018-04-26T10:45:45.979Z,15.30
2018-04-26T10:48:13.550Z,15.40
2018-04-26T10:50:41.886Z,15.30
2018-04-26T10:53:09.423Z,15.30
2018-04-26T10:55:36.999Z,15.30
2018-04-26T10:58:04.526Z,15.30
2018-04-26T11:00:32.094Z,15.30
2018-04-26T11:02:59.671Z,15.30
2018-04-26T11:05:27.250Z,15.40
2018-04-26T11:07:54.823Z,15.30
2018-04-26T11:10:23.863Z,15.30
2018-04-26T11:12:51.439Z,15.30
2018-04-26T11:15:19.016Z,15.30
2018-04-26T11:17:46.553Z,15.30
2018-04-26T11:20:14.138Z,15.30
2018-04-26T11:22:41.683Z,15.30
2018-04-26T11:25:09.220Z,15.30
2018-04-26T11:27:36.803Z,15.30
2018-04-26T11:30:04.343Z,15.30
2018-04-26T11:32:31.916Z,15.30
2018-04-26T11:34:59.446Z,15.30
2018-04-26T11:37:27.786Z,15.30
2018-04-26T11:39:55.364Z,15.20
2018-04-26T11:42:24.411Z,15.20
2018-04-26T11:44:53.086Z,15.20
2018-04-26T11:47:20.663Z,15.30
2018-04-26T11:49:48.239Z,15.30
2018-04-26T11:52:15.780Z,15.30
2018-04-26T11:54:43.337Z,15.30
2018-04-26T11:57:10.905Z,15.30
2018-04-26T11:59:38.471Z,15.30
2018-04-26T12:02:06.041Z,15.30
2018-04-26T12:04:34.834Z,15.30
2018-04-26T12:07:02.414Z,15.30
2018-04-26T12:09:29.952Z,15.30
2018-04-26T12:11:57.521Z,15.30
2018-04-26T12:14:25.058Z,15.30
2018-04-26T12:16:52.629Z,15.30
2018-04-26T12:19:20.191Z,15.30
2018-04-26T12:21:49.314Z,15.40
2018-04-26T12:24:17.615Z,15.40
2018-04-26T12:26:45.919Z,15.40
2018-04-26T12:29:13.549Z,15.40
2018-04-26T12:31:41.040Z,15.40
2018-04-26T12:34:08.599Z,15.40
2018-04-26T12:36:36.138Z,15.40
2018-04-26T12:39:04.474Z,15.40
2018-04-26T12:41:32.010Z,15.30
2018-04-26T12:43:59.584Z,15.40
2018-04-26T12:46:27.145Z,15.30
2018-04-26T12:48:54.720Z,15.30
2018-04-26T12:51:23.029Z,15.40
2018-04-26T12:53:51.362Z,15.40
2018-04-26T12:56:18.930Z,15.40
2018-04-26T12:58:46.462Z,15.30
2018-04-26T13:01:14.035Z,15.30
2018-04-26T13:03:41.572Z,15.30
2018-04-26T13:06:09.148Z,15.30
2018-04-26T13:08:36.690Z,15.30
2018-04-26T13:11:04.268Z,15.30
2018-04-26T13:13:31.805Z,15.30
2018-04-26T13:15:59.410Z,15.40
2018-04-26T13:18:26.950Z,15.40
2018-04-26T13:20:54.477Z,15.40
2018-04-26T13:23:22.074Z,15.40
2018-04-26T13:25:49.610Z,15.40
2018-04-26T13:28:17.188Z,15.40
2018-04-26T13:30:44.755Z,15.50
2018-04-26T13:33:12.288Z,15.50
2018-04-26T13:35:39.867Z,15.50
2018-04-26T13:38:07.402Z,15.60
2018-04-26T13:40:34.959Z,15.60
2018-04-26T13:43:02.555Z,15.60
2018-04-26T13:45:30.096Z,15.60
2018-04-26T13:47:57.638Z,15.60
2018-04-26T13:50:25.217Z,15.60
2018-04-26T13:52:52.757Z,15.70
2018-04-26T13:55:20.337Z,15.60
2018-04-26T13:57:47.871Z,15.60
2018-04-26T14:00:16.208Z,15.60
2018-04-26T14:02:43.745Z,15.60
2018-04-26T14:05:11.319Z,15.60
2018-04-26T14:07:38.852Z,15.60
2018-04-26T14:10:06.417Z,15.60
2018-04-26T14:12:33.996Z,15.60
2018-04-26T14:15:01.529Z,15.60
2018-04-26T14:17:29.181Z,15.60
2018-04-26T14:19:56.686Z,15.60
2018-04-26T14:22:24.255Z,15.60
2018-04-26T14:24:51.782Z,15.60
2018-04-26T14:27:19.359Z,15.60
2018-04-26T14:29:46.900Z,15.60
2018-04-26T14:32:14.498Z,15.60
2018-04-26T14:34:42.035Z,15.60
2018-04-26T14:37:09.722Z,15.60
2018-04-26T14:39:37.975Z,15.60
2018-04-26T14:42:05.518Z,15.60
2018-04-26T14:44:33.088Z,15.60
2018-04-26T14:47:00.620Z,15.70
2018-04-26T14:49:28.200Z,15.70
2018-04-26T14:51:55.738Z,15.70
2018-04-26T14:54:23.326Z,15.70
2018-04-26T14:56:50.893Z,15.70
2018-04-26T14:59:18.459Z,15.80
2018-04-26T15:01:46.000Z,15.80
2018-04-26T15:04:13.584Z,15.80
2018-04-26T15:06:41.155Z,15.90
2018-04-26T15:09:10.231Z,15.80
2018-04-26T15:11:37.762Z,15.80
2018-04-26T15:14:05.334Z,15.90
2018-04-26T15:16:32.870Z,15.90
2018-04-26T15:19:01.212Z,15.90
2018-04-26T15:21:29.524Z,15.90
2018-04-26T15:23:57.858Z,15.90
2018-04-26T15:26:25.429Z,15.90
2018-04-26T15:28:53.734Z,15.90
2018-04-26T15:31:22.074Z,15.90
2018-04-26T15:33:49.608Z,15.80
2018-04-26T15:36:17.187Z,15.80
2018-04-26T15:38:44.736Z,15.80
2018-04-26T15:41:12.315Z,15.80
2018-04-26T15:43:39.879Z,15.80
2018-04-26T15:46:07.416Z,15.80
2018-04-26T15:48:34.996Z,15.80
2018-04-26T15:51:02.553Z,15.70
2018-04-26T15:53:42.174Z,15.70
2018-04-26T15:56:32.118Z,15.70
2018-04-26T15:59:12.432Z,15.70
2018-04-26T16:02:15.115Z,15.70
2018-04-26T16:04:54.544Z,15.70
2018-04-26T16:07:49.523Z,15.70
2018-04-26T16:10:29.010Z,15.70
2018-04-26T16:13:15.162Z,15.70
2018-04-26T16:16:00.392Z,15.60
2018-04-26T16:18:42.938Z,15.60
2018-04-26T16:21:37.152Z,15.60
2018-04-26T16:24:22.329Z,15.70
2018-04-26T16:27:07.554Z,15.60
2018-04-26T16:29:47.654Z,15.60
2018-04-26T16:32:32.892Z,15.60
2018-04-26T16:35:19.119Z,15.60
2018-04-26T16:38:04.356Z,15.60
2018-04-26T16:40:32.690Z,17.50
2018-04-26T16:43:00.272Z,17.50
2018-04-26T16:45:27.894Z,18.00
2018-04-26T16:47:55.483Z,18.20
2018-04-26T16:50:23.026Z,18.50
2018-04-26T16:52:50.607Z,18.60
2018-04-26T16:55:18.150Z,18.80
2018-04-26T16:57:45.681Z,18.90
2018-04-26T17:00:13.256Z,19.00
2018-04-26T17:02:40.789Z,19.10
2018-04-26T17:05:08.354Z,19.10
2018-04-26T17:07:35.887Z,19.10
2018-04-26T17:10:04.225Z,19.20
2018-04-26T17:12:31.786Z,19.20
2018-04-26T17:14:59.322Z,19.20
2018-04-26T17:17:26.893Z,19.20
2018-04-26T17:19:54.458Z,19.20
2018-04-26T17:22:22.043Z,19.20
2018-04-26T17:24:49.613Z,19.20
2018-04-26T17:27:17.192Z,19.20
2018-04-26T17:29:45.490Z,19.20
2018-04-26T17:32:13.025Z,19.20
2018-04-26T17:34:41.363Z,19.10
2018-04-26T17:37:10.427Z,19.10
2018-04-26T17:39:37.998Z,19.10
2018-04-26T17:42:05.587Z,19.10
2018-04-26T17:44:33.113Z,19.00
2018-04-26T17:47:00.650Z,19.00
2018-04-26T17:49:28.987Z,19.00
2018-04-26T17:51:56.522Z,18.90
2018-04-26T17:54:24.101Z,18.90
2018-04-26T17:56:51.670Z,18.90
2018-04-26T17:59:19.205Z,18.90
2018-04-26T18:01:46.790Z,18.90
2018-04-26T18:04:14.354Z,18.80
2018-04-26T18:06:41.890Z,18.80
2018-04-26T18:09:09.422Z,18.80
2018-04-26T18:11:37.002Z,18.80
2018-04-26T18:14:04.666Z,18.80
2018-04-26T18:16:32.238Z,18.80
2018-04-26T18:18:59.814Z,18.70
2018-04-26T18:21:27.343Z,18.70
2018-04-26T18:23:55.674Z,18.60
2018-04-26T18:26:23.964Z,18.60
2018-04-26T18:28:52.319Z,18.60
2018-04-26T18:31:20.042Z,18.50
2018-04-26T18:33:47.584Z,18.60
2018-04-26T18:36:15.126Z,18.60
2018-04-26T18:38:43.466Z,18.50
2018-04-26T18:41:10.994Z,18.40
2018-04-26T18:43:38.565Z,18.50
2018-04-26T18:46:06.135Z,18.40
2018-04-26T18:48:33.694Z,18.40
2018-04-26T18:51:01.300Z,18.40
2018-04-26T18:53:28.812Z,18.40
2018-04-26T18:55:56.348Z,18.40
2018-04-26T18:58:23.927Z,18.40
2018-04-26T19:00:51.459Z,18.30
2018-04-26T19:03:19.034Z,18.30
2018-04-26T19:05:46.588Z,18.30
2018-04-26T19:08:14.238Z,18.30
2018-04-26T19:10:41.846Z,18.20
2018-04-26T19:13:09.445Z,18.20
2018-04-26T19:15:37.822Z,18.20
2018-04-26T19:18:05.391Z,18.10
2018-04-26T19:20:33.809Z,18.10
2018-04-26T19:23:01.342Z,18.10
2018-04-26T19:25:28.919Z,18.10
2018-04-26T19:27:56.461Z,18.10
2018-04-26T19:30:24.101Z,18.00
2018-04-26T19:32:52.651Z,18.00
2018-04-26T19:35:20.473Z,18.00
2018-04-26T19:37:48.262Z,18.00
2018-04-26T19:40:15.841Z,17.90
2018-04-26T19:42:43.414Z,17.90
2018-04-26T19:45:11.012Z,17.90
2018-04-26T19:47:39.310Z,17.90
2018-04-26T19:50:06.879Z,17.80
2018-04-26T19:52:34.554Z,17.90
2018-04-26T19:55:02.303Z,17.80
2018-04-26T19:57:29.868Z,17.80
2018-04-26T19:59:57.463Z,17.80
2018-04-26T20:02:24.989Z,17.70
2018-04-26T20:04:52.766Z,17.70
2018-04-26T20:07:20.425Z,17.70
2018-04-26T20:09:47.978Z,17.70
2018-04-26T20:12:15.551Z,17.70
2018-04-26T20:14:43.092Z,17.60
2018-04-26T20:17:10.852Z,17.60
2018-04-26T20:19:38.479Z,17.60
2018-04-26T20:22:06.804Z,17.60
2018-04-26T20:24:35.212Z,17.50
2018-04-26T20:27:02.950Z,17.50
2018-04-26T20:29:30.518Z,17.50
2018-04-26T20:31:58.093Z,17.50
2018-04-26T20:34:25.636Z,17.50
2018-04-26T20:36:53.225Z,17.40
2018-04-26T20:39:20.827Z,17.40
2018-04-26T20:41:55.785Z,17.40
2018-04-26T20:44:34.911Z,17.40
2018-04-26T20:47:02.479Z,17.40
2018-04-26T20:49:30.059Z,17.30
2018-04-26T20:51:57.701Z,17.30
2018-04-26T20:54:25.327Z,17.30
2018-04-26T20:56:53.633Z,17.30
2018-04-26T20:59:21.198Z,17.20
2018-04-26T21:01:48.738Z,17.20
2018-04-26T21:04:16.316Z,17.20
2018-04-26T21:06:43.882Z,17.20
2018-04-26T21:09:11.450Z,17.20
2018-04-26T21:11:38.987Z,17.20
2018-04-26T21:14:06.613Z,17.20
2018-04-26T21:16:34.115Z,17.10
2018-04-26T21:19:01.651Z,17.10
2018-04-26T21:21:29.235Z,17.10
2018-04-26T21:23:56.776Z,17.10
2018-04-26T21:26:24.308Z,17.00
2018-04-26T21:28:51.890Z,17.00
2018-04-26T21:31:19.462Z,17.00
2018-04-26T21:33:47.011Z,17.00
2018-04-26T21:36:14.592Z,17.00
2018-04-26T21:38:42.122Z,16.90
2018-04-26T21:41:10.417Z,16.90
2018-04-26T21:43:38.096Z,16.90
2018-04-26T21:46:05.645Z,16.90
2018-04-26T21:48:33.188Z,16.80
2018-04-26T21:51:06.537Z,16.80
2018-04-26T21:53:39.777Z,16.80
2018-04-26T21:56:13.884Z,16.80
2018-04-26T21:58:47.976Z,16.70
2018-04-26T22:01:21.175Z,16.70
2018-04-26T22:04:04.395Z,16.70
2018-04-26T22:06:31.930Z,16.70
2018-04-26T22:08:59.497Z,16.70
2018-04-26T22:11:27.067Z,16.60
2018-04-26T22:13:55.361Z,16.60
2018-04-26T22:16:22.931Z,16.50
2018-04-26T22:18:51.235Z,16.50
2018-04-26T22:21:18.813Z,16.50
2018-04-26T22:23:46.347Z,16.50
2018-04-26T22:26:14.029Z,16.50
2018-04-26T22:28:41.604Z,16.40
2018-04-26T22:31:09.178Z,16.40
2018-04-26T22:33:36.711Z,16.40
2018-04-26T22:36:04.253Z,16.40
2018-04-26T22:38:31.846Z,16.30
2018-04-26T22:40:59.416Z,16.30
2018-04-26T22:43:26.982Z,16.30
2018-04-26T22:45:54.515Z,16.30
2018-04-26T22:48:22.083Z,16.20
2018-04-26T22:50:49.662Z,16.20
2018-04-26T22:53:17.194Z,16.20
2018-04-26T22:55:44.726Z,16.20
2018-04-26T22:58:12.290Z,16.20
2018-04-26T23:00:39.822Z,16.10
2018-04-26T23:03:08.150Z,16.10
2018-04-26T23:05:35.692Z,16.10
2018-04-26T23:08:03.290Z,16.10
2018-04-26T23:10:30.828Z,16.00
2018-04-26T23:12:58.370Z,16.00
2018-04-26T23:15:25.935Z,16.00
2018-04-26T23:17:53.470Z,16.00
2018-04-26T23:20:21.823Z,15.90
2018-04-26T23:22:49.352Z,15.90
2018-04-26T23:25:16.920Z,15.90
2018-04-26T23:27:44.456Z,15.90
2018-04-26T23:30:12.027Z,15.80
2018-04-26T23:32:39.567Z,15.80
2018-04-26T23:35:07.141Z,15.80
2018-04-26T23:37:34.684Z,15.80
2018-04-26T23:40:02.262Z,15.80
2018-04-26T23:42:29.793Z,15.70
2018-04-26T23:44:58.099Z,15.60
2018-04-26T23:47:26.434Z,15.70
2018-04-26T23:49:54.788Z,15.60
2018-04-26T23:52:22.327Z,15.60
2018-04-26T23:54:49.862Z,15.60
2018-04-26T23:57:17.440Z,15.60
2018-04-26T23:59:44.978Z,15.60
